Time;durP1;ratioP1;P1;durP2;ratioP2;P2;SDS_P1;SDS_P2;PMS_P1;PMS_P2;Temp;Humidity;BMP_temperature;BMP_pressure;BME280_temperature;BME280_humidity;BME280_pressure;Samples;Min_cycle;Max_cycle;Signal;HPM_P1;HPM_P2
2021/05/10 00:01:01;;;;;;;13.52;9.00;;;;;;;;;;4873632;29;20467;-55
2021/05/10 00:03:27;;;;;;;14.15;9.80;;;;;;;;;;4846343;29;20404;-56
2021/05/10 00:06:14;;;;;;;17.30;10.07;;;;;;;;;;4860411;29;20150;-57
2021/05/10 00:08:41;;;;;;;11.88;9.05;;;;;;;;;;4896663;29;20389;-57
2021/05/10 00:11:07;;;;;;;12.63;9.38;;;;;;;;;;4896261;29;20146;-57
2021/05/10 00:13:33;;;;;;;12.05;8.43;;;;;;;;;;4876027;29;20109;-58
2021/05/10 00:15:59;;;;;;;11.50;7.72;;;;;;;;;;4890756;29;20052;-60
2021/05/10 00:18:25;;;;;;;12.38;8.70;;;;;;;;;;4878878;29;20044;-55
2021/05/10 00:20:51;;;;;;;13.93;9.05;;;;;;;;;;4884642;29;20522;-55
2021/05/10 00:23:17;;;;;;;11.68;8.98;;;;;;;;;;4891505;29;20059;-56
2021/05/10 00:26:03;;;;;;;12.07;8.68;;;;;;;;;;4869733;29;20052;-57
2021/05/10 00:28:29;;;;;;;14.70;8.70;;;;;;;;;;4877178;29;20411;-59
2021/05/10 00:30:55;;;;;;;13.70;9.00;;;;;;;;;;4861202;29;20055;-59
2021/05/10 00:33:20;;;;;;;15.05;9.30;;;;;;;;;;4873276;29;21305;-58
2021/05/10 00:36:06;;;;;;;12.55;9.65;;;;;;;;;;4856509;29;20144;-56
2021/05/10 00:38:32;;;;;;;13.48;9.45;;;;;;;;;;4848941;29;20041;-58
2021/05/10 00:40:58;;;;;;;13.02;9.13;;;;;;;;;;4851859;29;20046;-58
2021/05/10 00:43:23;;;;;;;15.82;10.35;;;;;;;;;;4857047;29;20041;-58
2021/05/10 00:45:49;;;;;;;15.25;11.07;;;;;;;;;;4862727;29;20065;-59
2021/05/10 00:48:17;;;;;;;16.90;10.75;;;;;;;;;;4856512;29;20116;-57
2021/05/10 00:50:43;;;;;;;14.30;9.88;;;;;;;;;;4863309;29;20125;-56
2021/05/10 00:53:09;;;;;;;15.75;10.68;;;;;;;;;;4857279;29;20421;-59
2021/05/10 00:55:36;;;;;;;15.73;9.65;;;;;;;;;;4858337;29;20053;-59
2021/05/10 00:58:02;;;;;;;14.48;10.40;;;;;;;;;;4873076;29;20042;-59
2021/05/10 01:00:32;;;;;;;12.88;9.60;;;;;;;;;;4856602;29;20524;-56
2021/05/10 01:02:59;;;;;;;15.38;9.13;;;;;;;;;;4865559;29;20044;-57
2021/05/10 01:05:25;;;;;;;12.90;9.43;;;;;;;;;;4905281;29;20041;-59
2021/05/10 01:07:51;;;;;;;14.50;9.63;;;;;;;;;;4890470;29;20372;-58
2021/05/10 01:10:19;;;;;;;14.70;9.35;;;;;;;;;;4907215;29;20138;-57
2021/05/10 01:13:05;;;;;;;14.73;10.43;;;;;;;;;;4895669;28;20043;-56
2021/05/10 01:15:30;;;;;;;16.33;10.95;;;;;;;;;;4933640;28;20098;-57
2021/05/10 01:17:56;;;;;;;17.08;10.60;;;;;;;;;;4919380;29;20197;-56
2021/05/10 01:20:24;;;;;;;14.57;10.35;;;;;;;;;;4913277;28;20050;-55
2021/05/10 01:22:54;;;;;;;17.35;10.90;;;;;;;;;;4927144;28;20032;-58
2021/05/10 01:25:27;;;;;;;16.92;11.85;;;;;;;;;;4926160;28;20057;-58
2021/05/10 01:27:54;;;;;;;16.42;10.75;;;;;;;;;;4904942;28;20048;-58
2021/05/10 01:30:42;;;;;;;16.88;12.27;;;;;;;;;;4863738;29;20084;-57
2021/05/10 01:33:09;;;;;;;18.10;12.65;;;;;;;;;;4874357;29;20427;-54
2021/05/10 01:35:39;;;;;;;17.20;12.77;;;;;;;;;;4882047;29;20033;-53
2021/05/10 01:38:05;;;;;;;17.02;12.30;;;;;;;;;;4868956;29;20036;-55
2021/05/10 01:40:31;;;;;;;18.25;12.00;;;;;;;;;;4881102;29;20063;-55
2021/05/10 01:42:58;;;;;;;17.75;12.70;;;;;;;;;;4880859;29;20574;-57
2021/05/10 01:45:24;;;;;;;19.65;13.52;;;;;;;;;;4886328;29;20457;-58
2021/05/10 01:47:57;;;;;;;19.08;12.65;;;;;;;;;;4872790;29;20530;-56
2021/05/10 01:50:23;;;;;;;19.33;14.02;;;;;;;;;;4884342;29;20118;-57
2021/05/10 01:53:09;;;;;;;18.13;13.40;;;;;;;;;;4855686;29;20187;-55
2021/05/10 01:55:35;;;;;;;18.88;13.65;;;;;;;;;;4854484;29;20045;-58
2021/05/10 01:58:02;;;;;;;18.00;13.02;;;;;;;;;;4852134;29;20401;-58
2021/05/10 02:00:36;;;;;;;18.27;13.45;;;;;;;;;;4849552;29;20152;-55
2021/05/10 02:03:06;;;;;;;20.45;14.48;;;;;;;;;;4853766;29;20044;-59
2021/05/10 02:05:32;;;;;;;17.75;12.82;;;;;;;;;;4852493;29;20042;-60
2021/05/10 02:07:58;;;;;;;16.83;12.27;;;;;;;;;;4856441;29;20647;-57
2021/05/10 02:10:34;;;;;;;18.35;12.40;;;;;;;;;;4892808;29;20127;-58
2021/05/10 02:13:08;;;;;;;18.95;12.60;;;;;;;;;;4859053;29;20159;-58
2021/05/10 02:15:55;;;;;;;18.55;13.57;;;;;;;;;;4894112;29;20058;-58
2021/05/10 02:18:22;;;;;;;21.40;13.43;;;;;;;;;;4897330;29;20130;-58
2021/05/10 02:20:49;;;;;;;18.65;12.52;;;;;;;;;;4891493;29;20049;-58
2021/05/10 02:23:16;;;;;;;16.35;12.27;;;;;;;;;;4863672;29;20229;-54
2021/05/10 02:25:43;;;;;;;20.35;12.57;;;;;;;;;;4890402;29;20059;-60
2021/05/10 02:28:10;;;;;;;17.27;12.13;;;;;;;;;;4894575;29;20154;-56
2021/05/10 02:30:37;;;;;;;17.52;13.40;;;;;;;;;;4900383;29;20071;-58
2021/05/10 02:33:05;;;;;;;21.52;13.45;;;;;;;;;;4925728;28;20039;-55
2021/05/10 02:35:31;;;;;;;17.27;13.20;;;;;;;;;;4932712;28;20206;-58
2021/05/10 02:37:58;;;;;;;18.45;13.68;;;;;;;;;;4930176;28;20186;-57
2021/05/10 02:40:24;;;;;;;18.40;12.82;;;;;;;;;;4926758;28;20035;-56
2021/05/10 02:42:50;;;;;;;17.52;12.63;;;;;;;;;;4909206;28;20035;-59
2021/05/10 02:45:16;;;;;;;19.58;14.25;;;;;;;;;;4924584;28;20047;-59
2021/05/10 02:47:42;;;;;;;20.42;13.38;;;;;;;;;;4914970;28;20050;-58
2021/05/10 02:50:17;;;;;;;20.38;14.80;;;;;;;;;;4913123;28;20052;-58
2021/05/10 02:52:43;;;;;;;22.05;14.05;;;;;;;;;;4891984;29;20044;-59
2021/05/10 02:55:09;;;;;;;17.77;12.48;;;;;;;;;;4912381;28;20380;-58
2021/05/10 02:57:35;;;;;;;17.33;12.25;;;;;;;;;;4924363;28;20043;-58
2021/05/10 03:00:06;;;;;;;15.77;11.43;;;;;;;;;;4927992;28;20039;-58
2021/05/10 03:02:32;;;;;;;18.15;12.65;;;;;;;;;;4911073;28;20643;-58
2021/05/10 03:04:58;;;;;;;20.05;14.05;;;;;;;;;;4935293;29;20035;-57
2021/05/10 03:07:24;;;;;;;18.40;12.68;;;;;;;;;;4917530;28;20042;-59
2021/05/10 03:09:56;;;;;;;22.08;14.63;;;;;;;;;;4926259;28;20553;-60
2021/05/10 03:12:22;;;;;;;21.52;13.88;;;;;;;;;;4935356;28;20351;-57
2021/05/10 03:14:48;;;;;;;24.30;14.70;;;;;;;;;;4935472;28;20044;-60
2021/05/10 03:17:14;;;;;;;18.15;13.63;;;;;;;;;;4929754;28;20082;-57
2021/05/10 03:19:40;;;;;;;18.75;12.57;;;;;;;;;;4935930;28;20044;-60
2021/05/10 03:22:05;;;;;;;18.58;12.88;;;;;;;;;;4936244;28;20086;-58
2021/05/10 03:24:31;;;;;;;20.30;14.25;;;;;;;;;;4934312;28;20086;-58
2021/05/10 03:26:57;;;;;;;23.00;14.35;;;;;;;;;;4935087;28;20043;-59
2021/05/10 03:29:23;;;;;;;17.20;13.00;;;;;;;;;;4927025;28;20431;-58
2021/05/10 03:31:49;;;;;;;23.85;15.40;;;;;;;;;;4934573;28;20039;-57
2021/05/10 03:34:14;;;;;;;27.13;16.02;;;;;;;;;;4933220;28;20516;-56
2021/05/10 03:36:40;;;;;;;24.02;15.60;;;;;;;;;;4935224;28;20173;-57
2021/05/10 03:39:06;;;;;;;24.00;15.93;;;;;;;;;;4919861;29;20038;-58
2021/05/10 03:41:32;;;;;;;24.73;16.83;;;;;;;;;;4932332;28;20067;-57
2021/05/10 03:43:58;;;;;;;27.52;18.08;;;;;;;;;;4935694;28;20121;-55
2021/05/10 03:46:24;;;;;;;26.90;17.42;;;;;;;;;;4934618;28;20032;-57
2021/05/10 03:48:50;;;;;;;25.90;17.55;;;;;;;;;;4934364;28;20039;-58
2021/05/10 03:51:17;;;;;;;25.65;17.15;;;;;;;;;;4934883;28;20042;-54
2021/05/10 03:53:43;;;;;;;29.75;17.52;;;;;;;;;;4919410;28;20043;-55
2021/05/10 03:56:10;;;;;;;31.63;18.13;;;;;;;;;;4917473;28;20051;-59
2021/05/10 03:58:36;;;;;;;32.88;18.98;;;;;;;;;;4932103;28;20082;-57
2021/05/10 04:01:02;;;;;;;35.90;20.90;;;;;;;;;;4934329;28;20118;-55
2021/05/10 04:03:34;;;;;;;32.28;20.30;;;;;;;;;;4933430;28;20044;-58
2021/05/10 04:09:07;;;;;;;31.10;21.17;;;;;;;;;;4934859;28;20142;-58
2021/05/10 04:14:17;;;;;;;35.28;22.60;;;;;;;;;;4919493;28;20883;-59
2021/05/10 04:16:43;;;;;;;32.72;21.65;;;;;;;;;;4933438;28;20040;-59
2021/05/10 04:19:09;;;;;;;34.78;21.52;;;;;;;;;;4935186;28;20051;-57
2021/05/10 04:21:34;;;;;;;37.45;22.35;;;;;;;;;;4926770;28;20473;-59
2021/05/10 04:24:00;;;;;;;32.95;20.92;;;;;;;;;;4935914;28;20039;-59
2021/05/10 04:26:27;;;;;;;37.22;22.13;;;;;;;;;;4926917;28;20545;-58
2021/05/10 04:28:53;;;;;;;36.15;23.95;;;;;;;;;;4932401;28;20055;-59
2021/05/10 04:31:19;;;;;;;36.08;23.25;;;;;;;;;;4933402;28;20083;-58
2021/05/10 04:33:44;;;;;;;35.28;21.85;;;;;;;;;;4935385;28;20044;-59
2021/05/10 04:36:11;;;;;;;39.33;23.67;;;;;;;;;;4937580;28;20679;-59
2021/05/10 04:38:41;;;;;;;39.45;24.42;;;;;;;;;;4935944;28;20920;-57
2021/05/10 04:41:07;;;;;;;38.97;23.95;;;;;;;;;;4930120;28;20146;-59
2021/05/10 04:43:33;;;;;;;42.42;25.17;;;;;;;;;;4914292;28;20049;-59
2021/05/10 04:46:00;;;;;;;46.13;26.75;;;;;;;;;;4938020;28;20047;-57
2021/05/10 04:48:28;;;;;;;42.50;25.75;;;;;;;;;;4936118;28;20154;-59
2021/05/10 04:50:54;;;;;;;41.72;25.05;;;;;;;;;;4916025;28;20071;-60
2021/05/10 04:53:20;;;;;;;43.28;25.70;;;;;;;;;;4940816;28;20043;-60
2021/05/10 04:55:46;;;;;;;42.65;26.75;;;;;;;;;;4921076;29;20054;-58
2021/05/10 04:58:11;;;;;;;40.65;25.55;;;;;;;;;;4940911;28;20051;-57
2021/05/10 05:00:37;;;;;;;49.13;26.23;;;;;;;;;;4939465;28;20083;-60
2021/05/10 05:03:03;;;;;;;45.03;26.52;;;;;;;;;;4940292;28;20141;-60
2021/05/10 05:05:29;;;;;;;42.83;26.23;;;;;;;;;;4939171;28;20094;-60
2021/05/10 05:07:55;;;;;;;44.17;25.35;;;;;;;;;;4937761;28;20130;-59
2021/05/10 05:10:21;;;;;;;43.33;25.48;;;;;;;;;;4936113;28;20549;-58
2021/05/10 05:12:51;;;;;;;40.47;25.58;;;;;;;;;;4921443;29;20102;-56
2021/05/10 05:15:18;;;;;;;45.13;25.02;;;;;;;;;;4931271;28;20138;-59
2021/05/10 05:17:43;;;;;;;45.60;26.52;;;;;;;;;;4937424;28;20154;-58
2021/05/10 05:20:10;;;;;;;39.95;24.17;;;;;;;;;;4938980;28;20118;-58
2021/05/10 05:22:55;;;;;;;39.08;23.88;;;;;;;;;;4918795;29;20043;-58
2021/05/10 05:25:21;;;;;;;43.85;25.42;;;;;;;;;;4916640;29;20200;-59
2021/05/10 05:27:47;;;;;;;44.65;24.83;;;;;;;;;;4933497;29;20044;-57
2021/05/10 05:30:32;;;;;;;41.50;24.90;;;;;;;;;;4875066;29;20340;-59
2021/05/10 05:33:00;;;;;;;39.75;24.38;;;;;;;;;;4850909;29;20049;-58
2021/05/10 05:35:25;;;;;;;42.88;23.50;;;;;;;;;;4862809;29;20045;-58
2021/05/10 05:38:12;;;;;;;43.97;25.48;;;;;;;;;;4860024;29;20140;-58
2021/05/10 05:40:38;;;;;;;43.72;25.15;;;;;;;;;;4859786;29;20099;-60
2021/05/10 05:43:04;;;;;;;40.75;23.42;;;;;;;;;;4844723;29;20100;-57
2021/05/10 05:45:30;;;;;;;37.78;22.88;;;;;;;;;;4860389;29;20033;-58
2021/05/10 05:47:56;;;;;;;41.05;24.25;;;;;;;;;;4858572;29;20054;-58
2021/05/10 05:50:22;;;;;;;37.53;23.10;;;;;;;;;;4856621;29;20049;-56
2021/05/10 05:52:48;;;;;;;36.47;22.77;;;;;;;;;;4859258;29;20047;-58
2021/05/10 05:55:14;;;;;;;35.53;22.00;;;;;;;;;;4860147;29;20049;-60
2021/05/10 05:58:00;;;;;;;36.55;22.50;;;;;;;;;;4842885;29;20046;-59
2021/05/10 06:00:26;;;;;;;37.80;22.25;;;;;;;;;;4836150;29;20167;-58
2021/05/10 06:02:52;;;;;;;35.85;21.65;;;;;;;;;;4895392;29;20114;-58
2021/05/10 06:05:18;;;;;;;35.35;22.30;;;;;;;;;;4892718;29;20511;-56
2021/05/10 06:07:44;;;;;;;33.80;21.85;;;;;;;;;;4906460;29;20086;-57
2021/05/10 06:10:12;;;;;;;36.42;21.20;;;;;;;;;;4909638;29;20051;-57
2021/05/10 06:12:38;;;;;;;35.15;21.60;;;;;;;;;;4910849;29;20095;-58
2021/05/10 06:15:05;;;;;;;31.65;20.13;;;;;;;;;;4894235;29;20521;-59
2021/05/10 06:17:31;;;;;;;31.15;19.33;;;;;;;;;;4910783;29;20040;-60
2021/05/10 06:19:57;;;;;;;31.30;19.13;;;;;;;;;;4909475;29;20082;-59
2021/05/10 06:22:23;;;;;;;32.80;20.40;;;;;;;;;;4911407;29;20135;-59
2021/05/10 06:24:49;;;;;;;35.30;20.42;;;;;;;;;;4912116;29;20056;-58
2021/05/10 06:27:15;;;;;;;31.23;20.00;;;;;;;;;;4913687;29;20039;-59
2021/05/10 06:29:41;;;;;;;29.38;19.70;;;;;;;;;;4916217;29;20187;-59
2021/05/10 06:32:07;;;;;;;30.90;20.40;;;;;;;;;;4916663;29;20107;-59
2021/05/10 06:34:52;;;;;;;33.63;19.90;;;;;;;;;;4879045;29;20044;-56
2021/05/10 06:37:19;;;;;;;34.40;19.85;;;;;;;;;;4878167;29;20668;-56
2021/05/10 06:40:05;;;;;;;34.17;20.98;;;;;;;;;;4879325;29;20415;-58
2021/05/10 06:42:31;;;;;;;33.05;20.65;;;;;;;;;;4849812;29;20250;-58
2021/05/10 06:44:57;;;;;;;31.67;20.52;;;;;;;;;;4860784;29;20107;-58
2021/05/10 06:47:23;;;;;;;32.78;20.80;;;;;;;;;;4859252;29;20087;-59
2021/05/10 06:49:49;;;;;;;30.77;20.25;;;;;;;;;;4857983;29;20140;-60
2021/05/10 06:52:15;;;;;;;34.97;21.70;;;;;;;;;;4860234;29;20113;-58
2021/05/10 06:54:41;;;;;;;34.45;19.95;;;;;;;;;;4858467;29;20129;-58
2021/05/10 06:57:06;;;;;;;31.60;20.75;;;;;;;;;;4860812;29;20044;-57
2021/05/10 06:59:33;;;;;;;28.48;18.17;;;;;;;;;;4844385;29;20049;-58
2021/05/10 07:02:01;;;;;;;29.20;17.27;;;;;;;;;;4857839;29;20499;-58
2021/05/10 07:04:26;;;;;;;24.63;15.57;;;;;;;;;;4860650;29;20614;-57
2021/05/10 07:06:52;;;;;;;24.15;15.52;;;;;;;;;;4859880;29;20037;-57
2021/05/10 07:09:38;;;;;;;24.52;15.43;;;;;;;;;;4827791;29;20061;-58
2021/05/10 07:12:04;;;;;;;22.42;14.43;;;;;;;;;;4858685;29;20040;-58
2021/05/10 07:14:49;;;;;;;23.08;14.15;;;;;;;;;;4874516;29;20056;-59
2021/05/10 07:17:15;;;;;;;24.95;14.43;;;;;;;;;;4866556;29;20195;-59
2021/05/10 07:19:41;;;;;;;22.48;13.82;;;;;;;;;;4866842;29;20527;-59
2021/05/10 07:22:08;;;;;;;24.92;15.27;;;;;;;;;;4861474;29;20056;-60
2021/05/10 07:24:34;;;;;;;26.20;15.70;;;;;;;;;;4864872;29;20049;-59
2021/05/10 07:27:00;;;;;;;27.25;17.15;;;;;;;;;;4860215;29;20569;-57
2021/05/10 07:29:26;;;;;;;28.83;16.90;;;;;;;;;;4861907;29;20049;-59
2021/05/10 07:31:52;;;;;;;28.95;17.15;;;;;;;;;;4860273;29;20082;-58
2021/05/10 07:34:18;;;;;;;32.03;19.02;;;;;;;;;;4862375;29;20446;-58
2021/05/10 07:36:44;;;;;;;32.50;18.30;;;;;;;;;;4864389;29;20128;-59
2021/05/10 07:39:10;;;;;;;32.55;18.25;;;;;;;;;;4880680;29;20104;-57
2021/05/10 07:41:55;;;;;;;39.05;19.30;;;;;;;;;;4881245;29;20807;-59
2021/05/10 07:44:21;;;;;;;35.08;18.48;;;;;;;;;;4881360;29;20047;-58
2021/05/10 07:46:47;;;;;;;38.20;18.70;;;;;;;;;;4912879;29;20051;-58
2021/05/10 07:49:13;;;;;;;37.28;18.92;;;;;;;;;;4913055;29;20047;-58
2021/05/10 07:51:39;;;;;;;34.65;18.75;;;;;;;;;;4924267;28;20407;-58
2021/05/10 07:54:05;;;;;;;39.45;18.40;;;;;;;;;;4928010;28;20047;-57
2021/05/10 07:56:50;;;;;;;37.60;18.45;;;;;;;;;;4909196;29;20062;-57
2021/05/10 07:59:16;;;;;;;38.08;19.25;;;;;;;;;;4918150;29;20692;-58
2021/05/10 08:01:42;;;;;;;36.78;18.77;;;;;;;;;;4915383;29;20395;-59
2021/05/10 08:04:08;;;;;;;44.40;19.73;;;;;;;;;;4918053;29;20111;-58
2021/05/10 08:06:33;;;;;;;43.33;18.63;;;;;;;;;;4910208;29;20067;-59
2021/05/10 08:09:00;;;;;;;40.00;18.90;;;;;;;;;;4918310;29;20051;-59
2021/05/10 08:11:26;;;;;;;42.25;19.42;;;;;;;;;;4900596;29;20054;-59
2021/05/10 08:13:51;;;;;;;46.08;19.33;;;;;;;;;;4902016;29;20044;-59
2021/05/10 08:16:17;;;;;;;42.92;19.38;;;;;;;;;;4901115;29;20115;-59
2021/05/10 08:18:43;;;;;;;44.20;19.55;;;;;;;;;;4896187;29;21068;-60
2021/05/10 08:21:09;;;;;;;36.63;18.05;;;;;;;;;;4896418;29;20044;-59
2021/05/10 08:23:35;;;;;;;42.47;19.88;;;;;;;;;;4896864;29;20036;-62
2021/05/10 08:26:01;;;;;;;39.78;17.73;;;;;;;;;;4897834;29;20047;-59
2021/05/10 08:28:27;;;;;;;35.60;18.33;;;;;;;;;;4896197;29;20676;-61
2021/05/10 08:30:54;;;;;;;38.60;18.02;;;;;;;;;;4896351;29;20402;-60
2021/05/10 08:33:19;;;;;;;43.97;19.70;;;;;;;;;;4898775;29;20055;-60
2021/05/10 08:35:45;;;;;;;39.85;19.45;;;;;;;;;;4914096;28;20044;-60
2021/05/10 08:38:11;;;;;;;43.50;20.33;;;;;;;;;;4929315;28;20139;-59
2021/05/10 08:40:37;;;;;;;44.08;19.23;;;;;;;;;;4912770;28;20090;-60
2021/05/10 08:43:15;;;;;;;41.05;18.95;;;;;;;;;;4922914;28;20047;-60
2021/05/10 08:45:41;;;;;;;48.22;19.38;;;;;;;;;;4913634;29;20524;-61
2021/05/10 08:48:10;;;;;;;38.63;18.38;;;;;;;;;;4915229;29;20044;-62
2021/05/10 08:50:36;;;;;;;39.67;18.55;;;;;;;;;;4913275;28;20060;-62
2021/05/10 08:53:04;;;;;;;38.15;18.50;;;;;;;;;;4914627;29;20130;-61
2021/05/10 08:55:30;;;;;;;34.08;16.00;;;;;;;;;;4914864;29;20052;-63
2021/05/10 08:57:55;;;;;;;35.13;17.02;;;;;;;;;;4915401;29;20075;-60
2021/05/10 09:00:23;;;;;;;32.97;15.65;;;;;;;;;;4912586;29;20049;-62
2021/05/10 09:02:49;;;;;;;36.42;16.67;;;;;;;;;;4914140;29;20036;-62
2021/05/10 09:05:16;;;;;;;34.85;16.30;;;;;;;;;;4915235;29;20127;-60
2021/05/10 09:07:42;;;;;;;33.17;15.82;;;;;;;;;;4913613;29;20130;-61
2021/05/10 09:10:10;;;;;;;28.92;14.75;;;;;;;;;;4899345;28;20058;-61
2021/05/10 09:12:43;;;;;;;32.63;14.32;;;;;;;;;;4923662;28;20052;-61
2021/05/10 09:15:25;;;;;;;33.13;14.80;;;;;;;;;;4916129;29;20044;-61
2021/05/10 09:17:53;;;;;;;31.77;15.18;;;;;;;;;;4909710;28;20043;-61
2021/05/10 09:20:26;;;;;;;28.25;14.15;;;;;;;;;;4916314;29;20047;-61
2021/05/10 09:22:59;;;;;;;33.53;15.48;;;;;;;;;;4925407;28;20042;-60
2021/05/10 09:25:32;;;;;;;26.20;12.32;;;;;;;;;;4915571;28;20039;-61
2021/05/10 09:28:17;;;;;;;28.23;14.82;;;;;;;;;;4922591;29;20062;-59
2021/05/10 09:30:44;;;;;;;34.60;15.32;;;;;;;;;;4896447;29;20060;-60
2021/05/10 09:33:18;;;;;;;34.78;16.17;;;;;;;;;;4899527;29;20399;-60
2021/05/10 09:35:45;;;;;;;36.38;15.80;;;;;;;;;;4895893;29;20392;-60
2021/05/10 09:38:11;;;;;;;33.22;15.00;;;;;;;;;;4899703;29;20460;-60
2021/05/10 09:40:42;;;;;;;34.45;16.05;;;;;;;;;;4905771;29;20055;-59
2021/05/10 09:43:09;;;;;;;37.22;16.23;;;;;;;;;;4897574;29;20067;-60
2021/05/10 09:45:39;;;;;;;37.63;16.63;;;;;;;;;;4899077;29;20075;-58
2021/05/10 09:48:06;;;;;;;34.90;16.08;;;;;;;;;;4898190;29;20048;-60
2021/05/10 09:50:40;;;;;;;39.22;16.23;;;;;;;;;;4897811;29;21109;-59
2021/05/10 09:53:07;;;;;;;39.38;16.45;;;;;;;;;;4899607;29;20075;-59
2021/05/10 09:55:43;;;;;;;42.65;16.77;;;;;;;;;;4883761;29;20043;-60
2021/05/10 09:58:09;;;;;;;43.28;17.58;;;;;;;;;;4918137;29;20084;-60
2021/05/10 10:00:35;;;;;;;37.85;16.67;;;;;;;;;;4915497;29;20048;-60
2021/05/10 10:03:01;;;;;;;44.17;17.42;;;;;;;;;;4916788;29;20051;-58
2021/05/10 10:05:29;;;;;;;45.47;17.85;;;;;;;;;;4916282;29;20383;-59
2021/05/10 10:07:55;;;;;;;40.72;16.20;;;;;;;;;;4919006;29;20107;-58
2021/05/10 10:10:21;;;;;;;45.53;17.52;;;;;;;;;;4935631;28;20051;-58
2021/05/10 10:12:47;;;;;;;49.20;18.65;;;;;;;;;;4934539;28;20045;-59
2021/05/10 10:15:13;;;;;;;45.38;18.98;;;;;;;;;;4928172;28;20379;-60
2021/05/10 10:17:39;;;;;;;44.30;18.45;;;;;;;;;;4937160;28;20055;-60
2021/05/10 10:20:07;;;;;;;47.38;18.23;;;;;;;;;;4888920;29;20491;-59
2021/05/10 10:22:33;;;;;;;60.97;20.70;;;;;;;;;;4886121;29;20063;-60
2021/05/10 10:25:02;;;;;;;69.57;21.27;;;;;;;;;;4889792;29;20780;-60
2021/05/10 10:27:29;;;;;;;99.80;22.35;;;;;;;;;;4887897;29;20087;-61
2021/05/10 10:29:55;;;;;;;98.50;20.15;;;;;;;;;;4876637;29;20116;-61
2021/05/10 10:32:22;;;;;;;140.93;22.15;;;;;;;;;;4887591;29;20045;-60
2021/05/10 10:34:49;;;;;;;154.88;22.88;;;;;;;;;;4878336;29;20040;-60
2021/05/10 10:37:16;;;;;;;110.70;20.40;;;;;;;;;;4872315;29;20040;-59
2021/05/10 10:40:02;;;;;;;74.30;21.50;;;;;;;;;;4888784;29;20049;-60
2021/05/10 10:42:32;;;;;;;84.43;21.05;;;;;;;;;;4885709;29;20135;-60
2021/05/10 10:45:03;;;;;;;78.63;20.15;;;;;;;;;;4874078;29;20051;-58
2021/05/10 10:47:52;;;;;;;69.22;19.80;;;;;;;;;;4884937;29;20044;-60
2021/05/10 10:50:53;;;;;;;70.70;20.10;;;;;;;;;;4870162;29;20048;-59
2021/05/10 10:53:38;;;;;;;79.40;19.10;;;;;;;;;;4868850;29;20116;-60
2021/05/10 10:56:04;;;;;;;72.60;19.25;;;;;;;;;;4869661;29;21144;-60
2021/05/10 10:58:31;;;;;;;83.55;19.58;;;;;;;;;;4870190;29;20111;-59
2021/05/10 11:00:56;;;;;;;97.97;20.17;;;;;;;;;;4875175;29;20136;-60
2021/05/10 11:03:23;;;;;;;88.38;18.40;;;;;;;;;;4887539;29;20131;-58
2021/05/10 11:05:49;;;;;;;72.78;17.52;;;;;;;;;;4887997;29;20043;-59
2021/05/10 11:08:14;;;;;;;87.15;16.63;;;;;;;;;;4885352;29;20064;-60
2021/05/10 11:10:48;;;;;;;99.82;17.80;;;;;;;;;;4888106;29;20075;-58
2021/05/10 11:13:34;;;;;;;106.72;17.83;;;;;;;;;;4875977;29;20052;-59
2021/05/10 11:16:02;;;;;;;75.05;16.60;;;;;;;;;;4876911;29;20123;-60
2021/05/10 11:18:39;;;;;;;61.58;15.18;;;;;;;;;;4857536;29;20181;-60
2021/05/10 11:21:10;;;;;;;56.22;14.57;;;;;;;;;;4875011;29;20056;-60
2021/05/10 11:23:37;;;;;;;55.90;14.65;;;;;;;;;;4874936;29;20051;-61
2021/05/10 11:26:04;;;;;;;55.35;14.15;;;;;;;;;;4874201;29;20037;-60
2021/05/10 11:28:32;;;;;;;72.25;14.15;;;;;;;;;;4900238;29;20047;-61
2021/05/10 11:30:58;;;;;;;42.35;11.98;;;;;;;;;;4911531;29;20619;-60
2021/05/10 11:33:42;;;;;;;50.03;13.10;;;;;;;;;;4913796;29;20047;-60
2021/05/10 11:36:07;;;;;;;;;;;;;;;;;;4913023;29;20573;-61
2021/05/10 11:38:33;;;;;;;57.58;11.77;;;;;;;;;;4913090;29;19918;-60
2021/05/10 11:40:59;;;;;;;38.33;11.52;;;;;;;;;;4911730;29;21277;-59
2021/05/10 11:43:26;;;;;;;52.55;11.98;;;;;;;;;;4911859;29;20479;-60
2021/05/10 11:45:52;;;;;;;42.92;11.07;;;;;;;;;;4911171;29;20169;-59
2021/05/10 11:48:37;;;;;;;31.30;11.70;;;;;;;;;;4912634;29;20035;-59
2021/05/10 11:51:17;;;;;;;35.05;11.07;;;;;;;;;;4914815;29;20040;-60
2021/05/10 11:53:43;;;;;;;26.23;10.68;;;;;;;;;;4916960;29;20062;-60
2021/05/10 11:56:09;;;;;;;28.20;10.27;;;;;;;;;;4915535;29;20391;-60
2021/05/10 11:58:44;;;;;;;25.77;10.63;;;;;;;;;;4916311;29;20035;-60
2021/05/10 12:01:10;;;;;;;24.25;10.27;;;;;;;;;;4915756;29;20051;-60
2021/05/10 12:03:36;;;;;;;27.30;10.38;;;;;;;;;;4915141;28;20059;-58
2021/05/10 12:06:21;;;;;;;28.63;11.50;;;;;;;;;;4913125;28;20044;-60
2021/05/10 12:08:47;;;;;;;25.70;10.88;;;;;;;;;;4923504;28;20060;-60
2021/05/10 12:11:22;;;;;;;25.83;11.80;;;;;;;;;;4934740;28;20058;-59
2021/05/10 12:13:48;;;;;;;26.88;12.18;;;;;;;;;;4928230;28;20047;-60
2021/05/10 12:16:13;;;;;;;26.52;11.45;;;;;;;;;;4936219;28;20981;-59
2021/05/10 12:18:52;;;;;;;26.67;10.80;;;;;;;;;;4934530;28;20054;-60
2021/05/10 12:21:18;;;;;;;27.05;10.75;;;;;;;;;;4933154;28;20098;-59
2021/05/10 12:23:43;;;;;;;27.77;11.60;;;;;;;;;;4934728;28;20058;-58
2021/05/10 12:26:12;;;;;;;27.67;11.07;;;;;;;;;;4934646;28;20043;-58
2021/05/10 12:28:38;;;;;;;33.10;11.50;;;;;;;;;;4934684;28;20047;-58
2021/05/10 12:31:04;;;;;;;37.70;9.93;;;;;;;;;;4936287;28;20051;-59
2021/05/10 12:33:31;;;;;;;30.30;9.68;;;;;;;;;;4933679;28;20050;-56
2021/05/10 12:35:59;;;;;;;27.23;9.93;;;;;;;;;;4933934;28;20086;-58
2021/05/10 12:38:25;;;;;;;24.63;9.35;;;;;;;;;;4918876;29;20086;-59
2021/05/10 12:40:52;;;;;;;30.13;9.32;;;;;;;;;;4934195;29;20043;-59
2021/05/10 12:43:18;;;;;;;23.40;8.30;;;;;;;;;;4912938;29;20078;-59
2021/05/10 12:45:56;;;;;;;24.75;9.77;;;;;;;;;;4935210;28;20051;-59
2021/05/10 12:48:34;;;;;;;30.58;8.55;;;;;;;;;;4935522;28;20118;-58
2021/05/10 12:51:03;;;;;;;28.10;8.90;;;;;;;;;;4935992;29;20110;-58
2021/05/10 12:53:29;;;;;;;20.58;9.05;;;;;;;;;;4934100;28;20085;-58
2021/05/10 12:56:03;;;;;;;22.30;9.38;;;;;;;;;;4925336;28;20499;-58
2021/05/10 12:58:32;;;;;;;21.17;9.10;;;;;;;;;;4928678;28;20043;-58
2021/05/10 13:01:08;;;;;;;29.00;9.70;;;;;;;;;;4927977;28;20044;-57
2021/05/10 13:03:34;;;;;;;51.63;10.27;;;;;;;;;;4924696;28;20031;-57
2021/05/10 13:06:02;;;;;;;45.05;10.27;;;;;;;;;;4927159;28;20589;-58
2021/05/10 13:08:47;;;;;;;147.30;13.85;;;;;;;;;;4926734;28;20083;-57
2021/05/10 13:11:17;;;;;;;106.20;11.10;;;;;;;;;;4927187;28;20398;-56
2021/05/10 13:13:47;;;;;;;145.45;13.60;;;;;;;;;;4926986;28;21168;-58
2021/05/10 13:16:20;;;;;;;105.93;10.88;;;;;;;;;;4926845;28;20046;-58
2021/05/10 13:19:17;;;;;;;100.32;11.25;;;;;;;;;;4918631;29;20655;-58
2021/05/10 13:32:48;;;;;;;28.33;10.55;;;;;;;;;;4920849;28;19925;-58
2021/05/10 13:35:32;;;;;;;30.13;10.63;;;;;;;;;;4929230;28;20066;-59
2021/05/10 13:38:01;;;;;;;23.65;10.07;;;;;;;;;;4930377;28;20421;-60
2021/05/10 13:40:27;;;;;;;23.88;10.82;;;;;;;;;;4929812;28;20078;-59
2021/05/10 13:42:58;;;;;;;22.42;10.13;;;;;;;;;;4933275;28;21130;-58
2021/05/10 13:45:24;;;;;;;19.02;9.75;;;;;;;;;;4933965;28;20039;-59
2021/05/10 13:47:49;;;;;;;19.98;9.45;;;;;;;;;;4934823;28;20481;-59
2021/05/10 13:50:15;;;;;;;17.65;8.88;;;;;;;;;;4936391;28;21312;-57
2021/05/10 13:52:41;;;;;;;18.40;10.18;;;;;;;;;;4933438;29;20039;-59
2021/05/10 13:55:07;;;;;;;18.90;9.25;;;;;;;;;;4933558;28;20109;-59
2021/05/10 13:57:33;;;;;;;17.55;9.07;;;;;;;;;;4932578;28;20091;-59
2021/05/10 13:59:58;;;;;;;16.75;8.05;;;;;;;;;;4934279;28;20044;-59
2021/05/10 14:02:24;;;;;;;16.55;8.90;;;;;;;;;;4933725;28;20616;-60
2021/05/10 14:04:50;;;;;;;16.98;8.93;;;;;;;;;;4933548;28;20055;-59
2021/05/10 14:07:16;;;;;;;14.73;8.55;;;;;;;;;;4934327;28;20043;-60
2021/05/10 14:09:43;;;;;;;13.57;7.57;;;;;;;;;;4928966;28;20047;-59
2021/05/10 14:12:09;;;;;;;13.00;7.18;;;;;;;;;;4927224;28;20903;-59
2021/05/10 14:14:35;;;;;;;12.35;6.55;;;;;;;;;;4928660;28;20031;-59
2021/05/10 14:17:01;;;;;;;11.70;6.35;;;;;;;;;;4928433;28;20482;-59
2021/05/10 14:19:26;;;;;;;13.07;6.15;;;;;;;;;;4925871;28;20048;-58
2021/05/10 14:22:00;;;;;;;10.73;6.55;;;;;;;;;;4927360;28;20101;-59
2021/05/10 14:24:27;;;;;;;10.32;6.50;;;;;;;;;;4925973;28;20047;-59
2021/05/10 14:26:53;;;;;;;9.88;5.78;;;;;;;;;;4926572;28;20051;-58
2021/05/10 14:29:18;;;;;;;11.88;6.10;;;;;;;;;;4925730;28;20243;-59
2021/05/10 14:31:45;;;;;;;10.77;5.60;;;;;;;;;;4926758;28;20067;-59
2021/05/10 14:34:11;;;;;;;12.63;5.82;;;;;;;;;;4925687;28;20538;-59
2021/05/10 14:36:37;;;;;;;10.20;5.70;;;;;;;;;;4926029;28;20077;-60
2021/05/10 14:39:23;;;;;;;10.63;5.55;;;;;;;;;;4918349;28;20091;-59
2021/05/10 14:41:49;;;;;;;10.35;5.57;;;;;;;;;;4919913;28;20062;-60
2021/05/10 14:44:15;;;;;;;10.98;5.43;;;;;;;;;;4918214;28;20059;-60